sensor_id;sensor_type;location;lat;lon;timestamp;temperature;humidity
10660;DHT22;5378;53.206;13.316;2023-08-21T00:02:05;18.90;99.90
10660;DHT22;5378;53.206;13.316;2023-08-21T00:04:53;18.90;99.90
10660;DHT22;5378;53.206;13.316;2023-08-21T00:07:39;18.90;99.90
10660;DHT22;5378;53.206;13.316;2023-08-21T00:10:30;19.00;99.90
10660;DHT22;5378;53.206;13.316;2023-08-21T00:13:17;19.00;99.90
10660;DHT22;5378;53.206;13.316;2023-08-21T00:16:05;19.00;99.90
10660;DHT22;5378;53.206;13.316;2023-08-21T00:18:52;18.90;99.90
10660;DHT22;5378;53.206;13.316;2023-08-21T00:21:39;18.80;99.90
10660;DHT22;5378;53.206;13.316;2023-08-21T00:24:26;18.80;99.90
10660;DHT22;5378;53.206;13.316;2023-08-21T00:27:15;18.90;99.90
10660;DHT22;5378;53.206;13.316;2023-08-21T00:30:03;18.80;99.90
10660;DHT22;5378;53.206;13.316;2023-08-21T00:32:50;18.80;99.90
10660;DHT22;5378;53.206;13.316;2023-08-21T00:35:38;18.90;99.90
10660;DHT22;5378;53.206;13.316;2023-08-21T00:38:25;18.90;99.90
10660;DHT22;5378;53.206;13.316;2023-08-21T00:41:13;19.00;99.90
10660;DHT22;5378;53.206;13.316;2023-08-21T00:44:01;18.90;99.90
10660;DHT22;5378;53.206;13.316;2023-08-21T00:46:50;18.90;99.90
10660;DHT22;5378;53.206;13.316;2023-08-21T00:49:37;18.90;99.90
10660;DHT22;5378;53.206;13.316;2023-08-21T00:52:25;18.90;99.90
10660;DHT22;5378;53.206;13.316;2023-08-21T00:55:13;18.90;99.90
10660;DHT22;5378;53.206;13.316;2023-08-21T00:58:02;18.90;99.90
10660;DHT22;5378;53.206;13.316;2023-08-21T01:00:52;18.90;99.90
10660;DHT22;5378;53.206;13.316;2023-08-21T01:03:39;18.90;99.90
10660;DHT22;5378;53.206;13.316;2023-08-21T01:06:26;18.90;99.90
10660;DHT22;5378;53.206;13.316;2023-08-21T01:09:20;19.00;99.90
10660;DHT22;5378;53.206;13.316;2023-08-21T01:12:20;18.90;99.90
10660;DHT22;5378;53.206;13.316;2023-08-21T01:15:09;18.90;99.90
10660;DHT22;5378;53.206;13.316;2023-08-21T01:17:57;18.90;99.90
10660;DHT22;5378;53.206;13.316;2023-08-21T01:20:46;18.80;99.90
10660;DHT22;5378;53.206;13.316;2023-08-21T01:23:36;18.90;99.90
10660;DHT22;5378;53.206;13.316;2023-08-21T01:26:23;18.80;99.90
10660;DHT22;5378;53.206;13.316;2023-08-21T01:29:11;18.80;99.90
10660;DHT22;5378;53.206;13.316;2023-08-21T01:32:04;18.90;99.90
10660;DHT22;5378;53.206;13.316;2023-08-21T01:34:55;18.80;99.90
10660;DHT22;5378;53.206;13.316;2023-08-21T01:37:43;18.70;99.90
10660;DHT22;5378;53.206;13.316;2023-08-21T01:40:32;18.70;99.90
10660;DHT22;5378;53.206;13.316;2023-08-21T01:43:19;18.80;99.90
10660;DHT22;5378;53.206;13.316;2023-08-21T01:46:06;18.70;99.90
10660;DHT22;5378;53.206;13.316;2023-08-21T01:48:54;18.60;99.90
10660;DHT22;5378;53.206;13.316;2023-08-21T01:51:41;18.50;99.90
10660;DHT22;5378;53.206;13.316;2023-08-21T01:54:28;18.40;99.90
10660;DHT22;5378;53.206;13.316;2023-08-21T01:57:18;18.40;99.90
10660;DHT22;5378;53.206;13.316;2023-08-21T02:00:06;18.40;99.90
10660;DHT22;5378;53.206;13.316;2023-08-21T02:03:00;18.40;99.90
10660;DHT22;5378;53.206;13.316;2023-08-21T02:05:47;18.40;99.90
10660;DHT22;5378;53.206;13.316;2023-08-21T02:08:35;19.10;99.90
10660;DHT22;5378;53.206;13.316;2023-08-21T02:11:22;18.50;99.90
10660;DHT22;5378;53.206;13.316;2023-08-21T02:14:12;18.60;99.90
10660;DHT22;5378;53.206;13.316;2023-08-21T02:16:59;18.60;99.90
10660;DHT22;5378;53.206;13.316;2023-08-21T02:19:48;18.50;99.90
10660;DHT22;5378;53.206;13.316;2023-08-21T02:22:35;18.60;99.90
10660;DHT22;5378;53.206;13.316;2023-08-21T02:25:22;18.60;99.90
10660;DHT22;5378;53.206;13.316;2023-08-21T02:28:09;18.70;99.90
10660;DHT22;5378;53.206;13.316;2023-08-21T02:30:58;18.70;99.90
10660;DHT22;5378;53.206;13.316;2023-08-21T02:33:48;18.80;99.90
10660;DHT22;5378;53.206;13.316;2023-08-21T02:36:38;18.90;99.90
10660;DHT22;5378;53.206;13.316;2023-08-21T02:39:25;19.00;99.90
10660;DHT22;5378;53.206;13.316;2023-08-21T02:42:12;19.10;99.90
10660;DHT22;5378;53.206;13.316;2023-08-21T02:44:59;19.20;99.90
10660;DHT22;5378;53.206;13.316;2023-08-21T02:47:50;19.10;99.90
10660;DHT22;5378;53.206;13.316;2023-08-21T02:50:38;18.90;99.90
10660;DHT22;5378;53.206;13.316;2023-08-21T02:53:25;18.80;99.90
10660;DHT22;5378;53.206;13.316;2023-08-21T02:56:12;18.70;99.90
10660;DHT22;5378;53.206;13.316;2023-08-21T02:58:59;18.90;99.90
10660;DHT22;5378;53.206;13.316;2023-08-21T03:01:46;18.90;99.90
10660;DHT22;5378;53.206;13.316;2023-08-21T03:04:35;19.00;99.90
10660;DHT22;5378;53.206;13.316;2023-08-21T03:07:24;19.00;99.90
10660;DHT22;5378;53.206;13.316;2023-08-21T03:10:12;19.00;99.90
10660;DHT22;5378;53.206;13.316;2023-08-21T03:12:59;18.90;99.90
10660;DHT22;5378;53.206;13.316;2023-08-21T03:15:47;19.00;99.90
10660;DHT22;5378;53.206;13.316;2023-08-21T03:18:54;19.10;99.90
10660;DHT22;5378;53.206;13.316;2023-08-21T03:21:44;19.20;99.90
10660;DHT22;5378;53.206;13.316;2023-08-21T03:24:31;19.40;99.90
10660;DHT22;5378;53.206;13.316;2023-08-21T03:27:18;19.40;99.90
10660;DHT22;5378;53.206;13.316;2023-08-21T03:30:06;19.50;99.90
10660;DHT22;5378;53.206;13.316;2023-08-21T03:32:55;19.50;99.90
10660;DHT22;5378;53.206;13.316;2023-08-21T03:35:43;19.40;99.90
10660;DHT22;5378;53.206;13.316;2023-08-21T03:38:31;19.20;99.90
10660;DHT22;5378;53.206;13.316;2023-08-21T03:41:19;19.30;99.90
10660;DHT22;5378;53.206;13.316;2023-08-21T03:44:06;19.10;99.90
10660;DHT22;5378;53.206;13.316;2023-08-21T03:46:53;19.10;99.90
10660;DHT22;5378;53.206;13.316;2023-08-21T03:49:40;19.00;99.90
10660;DHT22;5378;53.206;13.316;2023-08-21T03:52:27;19.00;99.90
10660;DHT22;5378;53.206;13.316;2023-08-21T03:55:16;18.90;99.90
10660;DHT22;5378;53.206;13.316;2023-08-21T03:58:03;19.30;99.90
10660;DHT22;5378;53.206;13.316;2023-08-21T04:00:51;18.90;99.90
10660;DHT22;5378;53.206;13.316;2023-08-21T04:03:39;19.00;99.90
10660;DHT22;5378;53.206;13.316;2023-08-21T04:06:26;19.20;99.90
10660;DHT22;5378;53.206;13.316;2023-08-21T04:09:13;19.20;99.90
10660;DHT22;5378;53.206;13.316;2023-08-21T04:12:01;19.10;99.90
10660;DHT22;5378;53.206;13.316;2023-08-21T04:14:48;19.10;99.90
10660;DHT22;5378;53.206;13.316;2023-08-21T04:17:35;19.20;99.90
10660;DHT22;5378;53.206;13.316;2023-08-21T04:20:23;19.20;99.90
10660;DHT22;5378;53.206;13.316;2023-08-21T04:23:10;19.30;99.90
10660;DHT22;5378;53.206;13.316;2023-08-21T04:26:00;19.40;99.90
10660;DHT22;5378;53.206;13.316;2023-08-21T04:28:49;19.40;99.90
10660;DHT22;5378;53.206;13.316;2023-08-21T04:31:36;19.50;99.90
10660;DHT22;5378;53.206;13.316;2023-08-21T04:34:23;19.40;99.90
10660;DHT22;5378;53.206;13.316;2023-08-21T04:37:12;19.40;99.90
10660;DHT22;5378;53.206;13.316;2023-08-21T04:39:59;19.60;99.90
10660;DHT22;5378;53.206;13.316;2023-08-21T04:42:46;19.70;99.90
10660;DHT22;5378;53.206;13.316;2023-08-21T04:45:35;19.90;99.90
10660;DHT22;5378;53.206;13.316;2023-08-21T04:48:23;20.40;99.90
10660;DHT22;5378;53.206;13.316;2023-08-21T04:51:10;21.30;99.90
10660;DHT22;5378;53.206;13.316;2023-08-21T04:53:57;22.20;99.90
10660;DHT22;5378;53.206;13.316;2023-08-21T04:56:45;23.10;99.90
10660;DHT22;5378;53.206;13.316;2023-08-21T04:59:33;24.00;99.90
10660;DHT22;5378;53.206;13.316;2023-08-21T05:02:21;24.40;99.90
10660;DHT22;5378;53.206;13.316;2023-08-21T05:05:10;24.00;99.90
10660;DHT22;5378;53.206;13.316;2023-08-21T05:07:58;23.40;99.90
10660;DHT22;5378;53.206;13.316;2023-08-21T05:10:46;23.00;99.90
10660;DHT22;5378;53.206;13.316;2023-08-21T05:13:33;22.60;99.90
10660;DHT22;5378;53.206;13.316;2023-08-21T05:16:20;22.40;99.90
10660;DHT22;5378;53.206;13.316;2023-08-21T05:19:08;22.50;99.90
10660;DHT22;5378;53.206;13.316;2023-08-21T05:21:56;22.20;99.90
10660;DHT22;5378;53.206;13.316;2023-08-21T05:24:43;22.10;99.90
10660;DHT22;5378;53.206;13.316;2023-08-21T05:27:30;22.00;99.90
10660;DHT22;5378;53.206;13.316;2023-08-21T05:30:17;21.90;99.90
10660;DHT22;5378;53.206;13.316;2023-08-21T05:33:04;22.10;99.90
10660;DHT22;5378;53.206;13.316;2023-08-21T05:35:56;22.90;99.90
10660;DHT22;5378;53.206;13.316;2023-08-21T05:38:43;23.40;99.90
10660;DHT22;5378;53.206;13.316;2023-08-21T05:41:31;23.50;99.90
10660;DHT22;5378;53.206;13.316;2023-08-21T05:44:19;23.50;99.90
10660;DHT22;5378;53.206;13.316;2023-08-21T05:47:07;23.60;99.90
10660;DHT22;5378;53.206;13.316;2023-08-21T05:49:54;23.60;99.90
10660;DHT22;5378;53.206;13.316;2023-08-21T05:52:42;23.70;99.90
10660;DHT22;5378;53.206;13.316;2023-08-21T05:55:29;23.90;99.90
10660;DHT22;5378;53.206;13.316;2023-08-21T05:58:16;24.40;99.90
10660;DHT22;5378;53.206;13.316;2023-08-21T06:01:03;24.90;99.90
10660;DHT22;5378;53.206;13.316;2023-08-21T06:03:52;26.70;99.90
10660;DHT22;5378;53.206;13.316;2023-08-21T06:07:01;28.60;99.90
10660;DHT22;5378;53.206;13.316;2023-08-21T06:09:50;30.20;99.90
10660;DHT22;5378;53.206;13.316;2023-08-21T06:12:37;30.70;99.90
10660;DHT22;5378;53.206;13.316;2023-08-21T06:15:25;30.50;99.90
10660;DHT22;5378;53.206;13.316;2023-08-21T06:18:13;29.90;99.90
10660;DHT22;5378;53.206;13.316;2023-08-21T06:21:00;29.10;99.90
10660;DHT22;5378;53.206;13.316;2023-08-21T06:23:48;28.30;99.90
10660;DHT22;5378;53.206;13.316;2023-08-21T06:26:36;28.00;99.90
10660;DHT22;5378;53.206;13.316;2023-08-21T06:29:24;29.20;99.90
10660;DHT22;5378;53.206;13.316;2023-08-21T06:32:11;30.70;99.90
10660;DHT22;5378;53.206;13.316;2023-08-21T06:34:59;32.30;99.90
10660;DHT22;5378;53.206;13.316;2023-08-21T06:37:47;33.50;99.90
10660;DHT22;5378;53.206;13.316;2023-08-21T06:40:35;34.60;99.90
10660;DHT22;5378;53.206;13.316;2023-08-21T06:43:24;35.20;99.90
10660;DHT22;5378;53.206;13.316;2023-08-21T06:46:15;35.60;99.90
10660;DHT22;5378;53.206;13.316;2023-08-21T06:49:02;36.00;99.90
10660;DHT22;5378;53.206;13.316;2023-08-21T06:51:50;35.70;99.90
10660;DHT22;5378;53.206;13.316;2023-08-21T06:54:37;34.70;99.90
10660;DHT22;5378;53.206;13.316;2023-08-21T06:57:24;34.60;99.90
10660;DHT22;5378;53.206;13.316;2023-08-21T07:00:13;35.00;99.90
10660;DHT22;5378;53.206;13.316;2023-08-21T07:03:00;35.40;99.90
10660;DHT22;5378;53.206;13.316;2023-08-21T07:05:53;35.90;99.90
10660;DHT22;5378;53.206;13.316;2023-08-21T07:08:41;36.20;99.90
10660;DHT22;5378;53.206;13.316;2023-08-21T07:11:28;36.50;99.90
10660;DHT22;5378;53.206;13.316;2023-08-21T07:14:15;36.80;99.90
10660;DHT22;5378;53.206;13.316;2023-08-21T07:17:06;37.00;99.90
10660;DHT22;5378;53.206;13.316;2023-08-21T07:19:53;37.10;99.70
10660;DHT22;5378;53.206;13.316;2023-08-21T07:22:40;37.30;98.70
10660;DHT22;5378;53.206;13.316;2023-08-21T07:25:27;37.20;98.20
10660;DHT22;5378;53.206;13.316;2023-08-21T07:28:15;37.30;97.80
10660;DHT22;5378;53.206;13.316;2023-08-21T07:31:02;37.40;97.40
10660;DHT22;5378;53.206;13.316;2023-08-21T07:33:50;37.60;96.70
10660;DHT22;5378;53.206;13.316;2023-08-21T07:36:37;37.60;96.30
10660;DHT22;5378;53.206;13.316;2023-08-21T07:39:24;37.60;95.80
10660;DHT22;5378;53.206;13.316;2023-08-21T07:42:12;37.60;95.90
10660;DHT22;5378;53.206;13.316;2023-08-21T07:44:59;37.70;95.30
10660;DHT22;5378;53.206;13.316;2023-08-21T07:47:46;37.80;95.00
10660;DHT22;5378;53.206;13.316;2023-08-21T07:50:39;37.90;94.30
10660;DHT22;5378;53.206;13.316;2023-08-21T07:53:26;38.00;93.50
10660;DHT22;5378;53.206;13.316;2023-08-21T07:56:14;38.10;93.40
10660;DHT22;5378;53.206;13.316;2023-08-21T07:59:01;38.00;93.90
10660;DHT22;5378;53.206;13.316;2023-08-21T08:01:48;38.00;92.10
10660;DHT22;5378;53.206;13.316;2023-08-21T08:04:35;37.80;91.70
10660;DHT22;5378;53.206;13.316;2023-08-21T08:07:24;37.60;91.60
10660;DHT22;5378;53.206;13.316;2023-08-21T08:10:12;37.70;90.70
10660;DHT22;5378;53.206;13.316;2023-08-21T08:12:59;37.30;89.30
10660;DHT22;5378;53.206;13.316;2023-08-21T08:15:46;37.40;89.30
10660;DHT22;5378;53.206;13.316;2023-08-21T08:18:34;37.40;89.40
10660;DHT22;5378;53.206;13.316;2023-08-21T08:21:21;37.40;90.20
10660;DHT22;5378;53.206;13.316;2023-08-21T08:24:10;37.80;89.40
10660;DHT22;5378;53.206;13.316;2023-08-21T08:26:58;37.80;87.70
10660;DHT22;5378;53.206;13.316;2023-08-21T08:29:45;37.80;86.20
10660;DHT22;5378;53.206;13.316;2023-08-21T08:32:32;37.80;86.00
10660;DHT22;5378;53.206;13.316;2023-08-21T08:35:19;37.60;85.60
10660;DHT22;5378;53.206;13.316;2023-08-21T08:38:06;37.60;85.00
10660;DHT22;5378;53.206;13.316;2023-08-21T08:40:56;37.60;82.10
10660;DHT22;5378;53.206;13.316;2023-08-21T08:43:44;37.80;83.80
10660;DHT22;5378;53.206;13.316;2023-08-21T08:46:32;37.80;81.40
10660;DHT22;5378;53.206;13.316;2023-08-21T08:49:21;37.80;77.90
10660;DHT22;5378;53.206;13.316;2023-08-21T08:52:09;37.70;77.00
10660;DHT22;5378;53.206;13.316;2023-08-21T08:54:58;37.60;78.90
10660;DHT22;5378;53.206;13.316;2023-08-21T08:57:46;37.40;78.00
10660;DHT22;5378;53.206;13.316;2023-08-21T09:00:34;37.00;75.90
10660;DHT22;5378;53.206;13.316;2023-08-21T09:03:21;36.80;80.00
10660;DHT22;5378;53.206;13.316;2023-08-21T09:06:08;36.80;76.10
10660;DHT22;5378;53.206;13.316;2023-08-21T09:08:56;36.60;78.20
10660;DHT22;5378;53.206;13.316;2023-08-21T09:11:44;36.30;77.40
10660;DHT22;5378;53.206;13.316;2023-08-21T09:14:34;36.10;76.00
10660;DHT22;5378;53.206;13.316;2023-08-21T09:17:21;35.60;77.90
10660;DHT22;5378;53.206;13.316;2023-08-21T09:20:10;35.00;75.10
10660;DHT22;5378;53.206;13.316;2023-08-21T09:22:58;34.70;79.30
10660;DHT22;5378;53.206;13.316;2023-08-21T09:25:47;34.70;80.90
10660;DHT22;5378;53.206;13.316;2023-08-21T09:28:34;34.60;83.30
10660;DHT22;5378;53.206;13.316;2023-08-21T09:31:23;34.40;80.70
10660;DHT22;5378;53.206;13.316;2023-08-21T09:34:11;34.00;81.30
10660;DHT22;5378;53.206;13.316;2023-08-21T09:36:58;33.50;83.20
10660;DHT22;5378;53.206;13.316;2023-08-21T09:39:46;32.60;84.90
10660;DHT22;5378;53.206;13.316;2023-08-21T09:42:33;31.80;85.70
10660;DHT22;5378;53.206;13.316;2023-08-21T09:45:21;31.00;87.30
10660;DHT22;5378;53.206;13.316;2023-08-21T09:48:10;30.20;91.00
10660;DHT22;5378;53.206;13.316;2023-08-21T09:50:57;29.70;90.60
10660;DHT22;5378;53.206;13.316;2023-08-21T09:53:45;29.40;93.10
10660;DHT22;5378;53.206;13.316;2023-08-21T09:56:33;29.20;92.00
10660;DHT22;5378;53.206;13.316;2023-08-21T09:59:21;28.90;92.70
10660;DHT22;5378;53.206;13.316;2023-08-21T10:02:10;28.50;93.50
10660;DHT22;5378;53.206;13.316;2023-08-21T10:05:00;28.20;94.20
10660;DHT22;5378;53.206;13.316;2023-08-21T10:07:48;28.00;94.00
10660;DHT22;5378;53.206;13.316;2023-08-21T10:10:37;28.00;94.70
10660;DHT22;5378;53.206;13.316;2023-08-21T10:13:25;28.10;96.70
10660;DHT22;5378;53.206;13.316;2023-08-21T10:16:12;28.10;93.60
10660;DHT22;5378;53.206;13.316;2023-08-21T10:19:03;28.20;94.30
10660;DHT22;5378;53.206;13.316;2023-08-21T10:21:55;28.30;95.30
10660;DHT22;5378;53.206;13.316;2023-08-21T10:24:45;28.40;95.60
10660;DHT22;5378;53.206;13.316;2023-08-21T10:27:33;28.50;94.40
10660;DHT22;5378;53.206;13.316;2023-08-21T10:30:23;28.50;93.50
10660;DHT22;5378;53.206;13.316;2023-08-21T10:33:10;28.20;92.50
10660;DHT22;5378;53.206;13.316;2023-08-21T10:35:57;28.00;93.40
10660;DHT22;5378;53.206;13.316;2023-08-21T10:39:00;27.90;93.20
10660;DHT22;5378;53.206;13.316;2023-08-21T10:41:53;27.80;94.00
10660;DHT22;5378;53.206;13.316;2023-08-21T10:44:49;27.70;95.30
10660;DHT22;5378;53.206;13.316;2023-08-21T10:47:37;27.60;95.60
10660;DHT22;5378;53.206;13.316;2023-08-21T10:50:25;27.30;94.20
10660;DHT22;5378;53.206;13.316;2023-08-21T10:53:13;27.10;95.60
10660;DHT22;5378;53.206;13.316;2023-08-21T10:56:05;27.10;95.00
10660;DHT22;5378;53.206;13.316;2023-08-21T10:58:53;27.00;95.40
10660;DHT22;5378;53.206;13.316;2023-08-21T11:01:44;27.00;95.90
10660;DHT22;5378;53.206;13.316;2023-08-21T11:04:39;27.10;97.00
10660;DHT22;5378;53.206;13.316;2023-08-21T11:07:27;27.00;95.50
10660;DHT22;5378;53.206;13.316;2023-08-21T11:10:16;26.90;96.10
10660;DHT22;5378;53.206;13.316;2023-08-21T11:13:06;26.90;95.70
10660;DHT22;5378;53.206;13.316;2023-08-21T11:15:58;26.80;95.50
10660;DHT22;5378;53.206;13.316;2023-08-21T11:18:45;26.80;95.00
10660;DHT22;5378;53.206;13.316;2023-08-21T11:21:32;26.70;96.20
10660;DHT22;5378;53.206;13.316;2023-08-21T11:24:19;26.60;96.30
10660;DHT22;5378;53.206;13.316;2023-08-21T11:27:07;26.70;95.80
10660;DHT22;5378;53.206;13.316;2023-08-21T11:29:56;26.70;96.50
10660;DHT22;5378;53.206;13.316;2023-08-21T11:32:43;26.80;96.30
10660;DHT22;5378;53.206;13.316;2023-08-21T11:35:31;26.90;97.00
10660;DHT22;5378;53.206;13.316;2023-08-21T11:38:19;26.90;94.90
10660;DHT22;5378;53.206;13.316;2023-08-21T11:41:07;26.80;94.30
10660;DHT22;5378;53.206;13.316;2023-08-21T11:44:01;26.70;96.40
10660;DHT22;5378;53.206;13.316;2023-08-21T11:46:52;26.80;96.80
10660;DHT22;5378;53.206;13.316;2023-08-21T11:49:40;26.80;97.40
10660;DHT22;5378;53.206;13.316;2023-08-21T11:52:29;26.80;94.00
10660;DHT22;5378;53.206;13.316;2023-08-21T11:55:17;26.80;95.70
10660;DHT22;5378;53.206;13.316;2023-08-21T11:58:05;26.80;96.40
10660;DHT22;5378;53.206;13.316;2023-08-21T12:00:52;26.80;95.50
10660;DHT22;5378;53.206;13.316;2023-08-21T12:03:40;26.70;94.90
10660;DHT22;5378;53.206;13.316;2023-08-21T12:06:27;26.70;95.60
10660;DHT22;5378;53.206;13.316;2023-08-21T12:09:18;26.60;97.00
10660;DHT22;5378;53.206;13.316;2023-08-21T12:12:06;26.50;97.30
10660;DHT22;5378;53.206;13.316;2023-08-21T12:14:54;26.50;96.90
10660;DHT22;5378;53.206;13.316;2023-08-21T12:17:41;26.50;97.20
10660;DHT22;5378;53.206;13.316;2023-08-21T12:20:29;26.60;95.40
10660;DHT22;5378;53.206;13.316;2023-08-21T12:23:16;26.50;94.30
10660;DHT22;5378;53.206;13.316;2023-08-21T12:26:04;26.30;95.60
10660;DHT22;5378;53.206;13.316;2023-08-21T12:28:51;26.20;95.60
10660;DHT22;5378;53.206;13.316;2023-08-21T12:31:38;26.30;95.00
10660;DHT22;5378;53.206;13.316;2023-08-21T12:34:25;26.50;95.20
10660;DHT22;5378;53.206;13.316;2023-08-21T12:37:14;26.50;95.00
10660;DHT22;5378;53.206;13.316;2023-08-21T12:40:03;26.50;94.10
10660;DHT22;5378;53.206;13.316;2023-08-21T12:42:50;26.60;95.00
10660;DHT22;5378;53.206;13.316;2023-08-21T12:45:37;26.60;94.30
10660;DHT22;5378;53.206;13.316;2023-08-21T12:48:24;26.50;94.30
10660;DHT22;5378;53.206;13.316;2023-08-21T12:51:11;26.40;94.70
10660;DHT22;5378;53.206;13.316;2023-08-21T12:54:00;26.50;95.90
10660;DHT22;5378;53.206;13.316;2023-08-21T12:56:47;26.40;94.70
10660;DHT22;5378;53.206;13.316;2023-08-21T12:59:34;26.40;94.10
10660;DHT22;5378;53.206;13.316;2023-08-21T13:02:24;26.40;94.20
10660;DHT22;5378;53.206;13.316;2023-08-21T13:05:13;26.40;94.30
10660;DHT22;5378;53.206;13.316;2023-08-21T13:08:00;26.30;94.40
10660;DHT22;5378;53.206;13.316;2023-08-21T13:10:48;26.30;94.30
10660;DHT22;5378;53.206;13.316;2023-08-21T13:13:35;26.30;94.00
10660;DHT22;5378;53.206;13.316;2023-08-21T13:16:22;26.30;94.50
10660;DHT22;5378;53.206;13.316;2023-08-21T13:19:09;26.30;94.60
10660;DHT22;5378;53.206;13.316;2023-08-21T13:21:56;26.30;94.40
10660;DHT22;5378;53.206;13.316;2023-08-21T13:24:44;26.30;95.60
10660;DHT22;5378;53.206;13.316;2023-08-21T13:27:32;26.30;95.00
10660;DHT22;5378;53.206;13.316;2023-08-21T13:30:19;26.40;95.00
10660;DHT22;5378;53.206;13.316;2023-08-21T13:33:08;26.40;94.90
10660;DHT22;5378;53.206;13.316;2023-08-21T13:35:55;26.40;94.80
10660;DHT22;5378;53.206;13.316;2023-08-21T13:38:42;26.40;96.30
10660;DHT22;5378;53.206;13.316;2023-08-21T13:41:30;26.40;95.20
10660;DHT22;5378;53.206;13.316;2023-08-21T13:44:19;26.50;95.30
10660;DHT22;5378;53.206;13.316;2023-08-21T13:47:06;26.60;95.60
10660;DHT22;5378;53.206;13.316;2023-08-21T13:49:53;26.60;97.00
10660;DHT22;5378;53.206;13.316;2023-08-21T13:52:40;26.70;95.20
10660;DHT22;5378;53.206;13.316;2023-08-21T13:55:28;26.80;95.00
10660;DHT22;5378;53.206;13.316;2023-08-21T13:58:15;26.80;95.60
10660;DHT22;5378;53.206;13.316;2023-08-21T14:01:04;26.60;94.00
10660;DHT22;5378;53.206;13.316;2023-08-21T14:03:52;26.40;95.00
10660;DHT22;5378;53.206;13.316;2023-08-21T14:06:39;26.00;95.30
10660;DHT22;5378;53.206;13.316;2023-08-21T14:09:26;26.00;95.50
10660;DHT22;5378;53.206;13.316;2023-08-21T14:12:13;26.00;95.50
10660;DHT22;5378;53.206;13.316;2023-08-21T14:15:01;26.10;96.50
10660;DHT22;5378;53.206;13.316;2023-08-21T14:17:50;26.10;95.90
10660;DHT22;5378;53.206;13.316;2023-08-21T14:20:38;26.20;95.70
10660;DHT22;5378;53.206;13.316;2023-08-21T14:23:26;26.20;95.90
10660;DHT22;5378;53.206;13.316;2023-08-21T14:26:13;26.20;95.50
10660;DHT22;5378;53.206;13.316;2023-08-21T14:28:59;26.10;95.70
10660;DHT22;5378;53.206;13.316;2023-08-21T14:31:46;26.10;95.80
10660;DHT22;5378;53.206;13.316;2023-08-21T14:34:35;26.10;95.80
10660;DHT22;5378;53.206;13.316;2023-08-21T14:37:22;26.20;95.20
10660;DHT22;5378;53.206;13.316;2023-08-21T14:40:10;26.20;96.70
10660;DHT22;5378;53.206;13.316;2023-08-21T14:42:57;26.10;96.00
10660;DHT22;5378;53.206;13.316;2023-08-21T14:45:44;26.10;95.70
10660;DHT22;5378;53.206;13.316;2023-08-21T14:48:31;26.10;96.60
10660;DHT22;5378;53.206;13.316;2023-08-21T14:51:20;26.00;96.40
10660;DHT22;5378;53.206;13.316;2023-08-21T14:54:07;25.90;96.20
10660;DHT22;5378;53.206;13.316;2023-08-21T14:56:54;25.70;96.40
10660;DHT22;5378;53.206;13.316;2023-08-21T14:59:42;25.60;96.70
10660;DHT22;5378;53.206;13.316;2023-08-21T15:02:29;25.70;96.40
10660;DHT22;5378;53.206;13.316;2023-08-21T15:05:16;25.60;96.60
10660;DHT22;5378;53.206;13.316;2023-08-21T15:08:05;25.70;97.00
10660;DHT22;5378;53.206;13.316;2023-08-21T15:10:52;25.60;96.40
10660;DHT22;5378;53.206;13.316;2023-08-21T15:13:39;25.70;96.70
10660;DHT22;5378;53.206;13.316;2023-08-21T15:16:27;25.60;97.80
10660;DHT22;5378;53.206;13.316;2023-08-21T15:19:14;25.40;99.50
10660;DHT22;5378;53.206;13.316;2023-08-21T15:22:01;25.20;98.40
10660;DHT22;5378;53.206;13.316;2023-08-21T15:24:50;25.20;98.30
10660;DHT22;5378;53.206;13.316;2023-08-21T15:27:37;25.20;98.70
10660;DHT22;5378;53.206;13.316;2023-08-21T15:30:24;25.40;97.00
10660;DHT22;5378;53.206;13.316;2023-08-21T15:33:12;25.40;97.20
10660;DHT22;5378;53.206;13.316;2023-08-21T15:35:59;25.40;99.20
10660;DHT22;5378;53.206;13.316;2023-08-21T15:38:46;25.30;98.50
10660;DHT22;5378;53.206;13.316;2023-08-21T15:41:34;25.40;99.20
10660;DHT22;5378;53.206;13.316;2023-08-21T15:44:21;25.40;97.70
10660;DHT22;5378;53.206;13.316;2023-08-21T15:47:08;25.40;98.10
10660;DHT22;5378;53.206;13.316;2023-08-21T15:50:05;25.40;97.80
10660;DHT22;5378;53.206;13.316;2023-08-21T15:52:53;25.30;98.80
10660;DHT22;5378;53.206;13.316;2023-08-21T15:55:40;25.20;98.30
10660;DHT22;5378;53.206;13.316;2023-08-21T15:58:29;25.20;98.40
10660;DHT22;5378;53.206;13.316;2023-08-21T16:01:16;25.10;98.30
10660;DHT22;5378;53.206;13.316;2023-08-21T16:04:03;25.00;97.80
10660;DHT22;5378;53.206;13.316;2023-08-21T16:06:50;24.90;98.50
10660;DHT22;5378;53.206;13.316;2023-08-21T16:09:37;24.90;97.70
10660;DHT22;5378;53.206;13.316;2023-08-21T16:12:25;24.90;98.40
10660;DHT22;5378;53.206;13.316;2023-08-21T16:15:13;24.90;99.00
10660;DHT22;5378;53.206;13.316;2023-08-21T16:18:03;24.80;99.90
10660;DHT22;5378;53.206;13.316;2023-08-21T16:20:51;24.80;99.90
10660;DHT22;5378;53.206;13.316;2023-08-21T16:23:38;24.80;99.40
10660;DHT22;5378;53.206;13.316;2023-08-21T16:26:25;24.70;98.30
10660;DHT22;5378;53.206;13.316;2023-08-21T16:29:12;24.70;98.40
10660;DHT22;5378;53.206;13.316;2023-08-21T16:32:05;24.70;99.50
10660;DHT22;5378;53.206;13.316;2023-08-21T16:34:52;24.70;99.90
10660;DHT22;5378;53.206;13.316;2023-08-21T16:37:39;24.60;99.90
10660;DHT22;5378;53.206;13.316;2023-08-21T16:40:27;24.60;99.90
10660;DHT22;5378;53.206;13.316;2023-08-21T16:43:14;24.60;99.90
10660;DHT22;5378;53.206;13.316;2023-08-21T16:46:01;24.60;99.90
10660;DHT22;5378;53.206;13.316;2023-08-21T16:48:51;24.50;99.90
10660;DHT22;5378;53.206;13.316;2023-08-21T16:51:38;24.50;99.60
10660;DHT22;5378;53.206;13.316;2023-08-21T16:54:25;24.50;99.40
10660;DHT22;5378;53.206;13.316;2023-08-21T16:57:14;24.30;99.80
10660;DHT22;5378;53.206;13.316;2023-08-21T17:00:03;24.30;99.90
10660;DHT22;5378;53.206;13.316;2023-08-21T17:02:55;24.30;99.90
10660;DHT22;5378;53.206;13.316;2023-08-21T17:05:44;24.20;99.90
10660;DHT22;5378;53.206;13.316;2023-08-21T17:08:31;24.10;99.90
10660;DHT22;5378;53.206;13.316;2023-08-21T17:11:18;24.10;99.90
10660;DHT22;5378;53.206;13.316;2023-08-21T17:14:06;24.10;99.90
10660;DHT22;5378;53.206;13.316;2023-08-21T17:16:53;24.00;99.90
10660;DHT22;5378;53.206;13.316;2023-08-21T17:19:41;23.90;99.90
10660;DHT22;5378;53.206;13.316;2023-08-21T17:22:29;23.80;99.90
10660;DHT22;5378;53.206;13.316;2023-08-21T17:25:16;23.80;99.90
10660;DHT22;5378;53.206;13.316;2023-08-21T17:28:04;23.80;99.90
10660;DHT22;5378;53.206;13.316;2023-08-21T17:30:51;23.70;99.90
10660;DHT22;5378;53.206;13.316;2023-08-21T17:33:38;23.70;99.90
10660;DHT22;5378;53.206;13.316;2023-08-21T17:36:24;23.70;99.90
10660;DHT22;5378;53.206;13.316;2023-08-21T17:39:13;23.60;99.90
10660;DHT22;5378;53.206;13.316;2023-08-21T17:42:01;23.50;99.90